Alexanders Store, Texas
Current Conditions -  °F | °C
As of 10:15 AM on Monday 22 Dec 2014 (Local Time) from KOCH Reporting Station
Overcast Overcast  
Wind Chill: 61°   Ceiling: 600
Heat Index: 61°   Visibility: 9mi
Dew Point: 57°   Wind: 12mph
Humidity: 88%   Direction: 200°SSW
Pressure: 29.72"   Gusts: NA
Location:  31.7022°N, 93.9592°W
Report Text: KOCH 221615Z AUTO 20010KT 9SM BKN006 OVC014 16/14 A2972 RMK AO1
Loading
Personal Weather Stations






























Interactive Weather Map New forecast layout! Learn more

10-Day Weather Forecast

Advertisements
Track Severe Weather on mobile